Time;durP1;ratioP1;P1;durP2;ratioP2;P2;SDS_P1;SDS_P2;PMS_P1;PMS_P2;Temp;Humidity;BMP_temperature;BMP_pressure;BME280_temperature;BME280_humidity;BME280_pressure;Samples;Min_cycle;Max_cycle;Signal;HPM_P1;HPM_P2
2022/04/11 00:00:46;;;;;;;2.87;1.60;;;;;;;;;;5018016;28;20186;-65
2022/04/11 00:03:11;;;;;;;2.77;1.83;;;;;;;;;;5017219;28;20540;-66
2022/04/11 00:05:37;;;;;;;3.97;1.70;;;;;;;;;;5025246;28;20178;-66
2022/04/11 00:08:02;;;;;;;5.40;2.00;;;;;;;;;;5025921;28;20209;-66
2022/04/11 00:10:28;;;;;;;5.67;1.83;;;;;;;;;;5028724;28;20713;-66
2022/04/11 00:13:04;;;;;;;4.53;1.90;;;;;;;;;;5019702;28;20285;-67
2022/04/11 00:15:30;;;;;;;6.60;2.00;;;;;;;;;;5023799;28;20186;-66
2022/04/11 00:17:55;;;;;;;3.97;1.63;;;;;;;;;;5033193;28;20201;-66
2022/04/11 00:20:20;;;;;;;6.23;1.87;;;;;;;;;;5022753;28;20304;-66
2022/04/11 00:22:46;;;;;;;4.47;2.63;;;;;;;;;;5026245;28;20527;-66
2022/04/11 00:25:11;;;;;;;4.47;2.10;;;;;;;;;;5018412;28;20232;-67
2022/04/11 00:27:36;;;;;;;5.67;2.27;;;;;;;;;;5021279;28;20310;-67
2022/04/11 00:30:03;;;;;;;2.93;1.90;;;;;;;;;;5024504;28;20264;-67
2022/04/11 00:32:28;;;;;;;5.87;2.10;;;;;;;;;;5025110;28;20202;-68
2022/04/11 00:34:54;;;;;;;3.67;2.20;;;;;;;;;;5020946;28;20187;-67
2022/04/11 00:37:19;;;;;;;5.63;2.57;;;;;;;;;;5024686;28;20554;-67
2022/04/11 00:39:44;;;;;;;3.20;1.90;;;;;;;;;;5024671;28;20200;-67
2022/04/11 00:42:12;;;;;;;5.17;2.30;;;;;;;;;;5026893;28;20232;-66
2022/04/11 00:44:38;;;;;;;3.53;2.07;;;;;;;;;;5027905;28;20196;-67
2022/04/11 00:47:03;;;;;;;5.47;2.50;;;;;;;;;;5024097;28;20579;-66
2022/04/11 00:49:29;;;;;;;3.90;2.50;;;;;;;;;;5021925;28;20270;-66
2022/04/11 00:51:54;;;;;;;6.17;2.70;;;;;;;;;;5027250;28;20264;-66
2022/04/11 00:54:20;;;;;;;7.23;2.47;;;;;;;;;;5019662;28;20264;-66
2022/04/11 00:56:46;;;;;;;4.20;2.63;;;;;;;;;;5023876;28;20210;-66
2022/04/11 00:59:13;;;;;;;5.17;2.67;;;;;;;;;;5025644;28;20197;-66
2022/04/11 01:01:39;;;;;;;8.80;2.40;;;;;;;;;;5019104;28;20190;-66
2022/04/11 01:04:05;;;;;;;5.40;2.90;;;;;;;;;;5026734;28;20553;-66
2022/04/11 01:06:30;;;;;;;4.80;2.70;;;;;;;;;;5025190;28;20170;-66
2022/04/11 01:08:56;;;;;;;5.30;3.07;;;;;;;;;;5020861;28;20210;-65
2022/04/11 01:11:22;;;;;;;5.80;2.57;;;;;;;;;;5009888;28;20230;-65
2022/04/11 01:13:47;;;;;;;4.27;2.53;;;;;;;;;;5023902;28;20182;-66
2022/04/11 01:16:13;;;;;;;3.90;2.37;;;;;;;;;;5022273;28;20243;-66
2022/04/11 01:18:39;;;;;;;5.27;2.60;;;;;;;;;;5019204;28;20282;-66
2022/04/11 01:21:08;;;;;;;3.57;2.33;;;;;;;;;;5028588;28;20339;-66
2022/04/11 01:23:34;;;;;;;5.77;2.60;;;;;;;;;;5026562;28;20680;-66
2022/04/11 01:25:59;;;;;;;4.20;2.53;;;;;;;;;;5025852;28;20182;-66
2022/04/11 01:28:25;;;;;;;5.77;2.57;;;;;;;;;;5026340;28;20240;-66
2022/04/11 01:30:52;;;;;;;6.80;2.67;;;;;;;;;;5012943;28;20206;-66
2022/04/11 01:33:24;;;;;;;3.17;2.20;;;;;;;;;;5022439;28;20182;-66
2022/04/11 01:35:50;;;;;;;4.00;2.23;;;;;;;;;;5029448;28;20212;-66
2022/04/11 01:38:17;;;;;;;7.03;2.20;;;;;;;;;;5021236;28;20179;-66
2022/04/11 01:40:55;;;;;;;6.50;2.17;;;;;;;;;;5015774;28;20194;-66
2022/04/11 01:43:22;;;;;;;7.37;2.80;;;;;;;;;;5026576;28;20189;-66
2022/04/11 01:45:48;;;;;;;4.47;2.33;;;;;;;;;;5025329;28;20206;-66
2022/04/11 01:48:13;;;;;;;6.63;2.20;;;;;;;;;;5016305;28;20546;-66
2022/04/11 01:50:39;;;;;;;4.40;2.33;;;;;;;;;;5020516;28;20179;-66
2022/04/11 01:53:07;;;;;;;5.00;2.50;;;;;;;;;;5028045;28;20191;-66
2022/04/11 01:55:32;;;;;;;3.90;2.10;;;;;;;;;;5020837;28;20220;-66
2022/04/11 01:57:57;;;;;;;4.87;2.20;;;;;;;;;;5023008;28;20670;-66
2022/04/11 02:00:23;;;;;;;5.80;2.57;;;;;;;;;;5019559;28;20278;-66
2022/04/11 02:02:48;;;;;;;5.43;2.50;;;;;;;;;;5014595;28;20265;-67
2022/04/11 02:05:13;;;;;;;6.90;2.20;;;;;;;;;;5023669;28;20189;-67
2022/04/11 02:07:38;;;;;;;4.40;2.17;;;;;;;;;;5024882;28;20243;-67
2022/04/11 02:10:05;;;;;;;6.47;2.33;;;;;;;;;;5026880;28;20190;-67
2022/04/11 02:12:30;;;;;;;6.60;2.53;;;;;;;;;;5013944;28;20232;-67
2022/04/11 02:14:56;;;;;;;6.80;2.93;;;;;;;;;;5020926;28;20432;-67
2022/04/11 02:17:21;;;;;;;5.47;2.40;;;;;;;;;;5023580;28;20175;-67
2022/04/11 02:19:47;;;;;;;4.80;2.40;;;;;;;;;;5016786;28;20201;-67
2022/04/11 02:22:12;;;;;;;6.30;2.60;;;;;;;;;;5021681;28;20213;-66
2022/04/11 02:24:37;;;;;;;4.10;2.53;;;;;;;;;;5022841;28;20621;-66
2022/04/11 02:27:03;;;;;;;5.00;2.60;;;;;;;;;;5018316;28;20175;-66
2022/04/11 02:29:28;;;;;;;5.33;2.57;;;;;;;;;;5019741;28;20201;-66
2022/04/11 02:31:54;;;;;;;5.30;2.50;;;;;;;;;;5024052;28;20305;-66
2022/04/11 02:34:19;;;;;;;4.47;2.43;;;;;;;;;;5027071;28;20221;-66
2022/04/11 02:36:44;;;;;;;5.67;2.70;;;;;;;;;;5021951;28;20187;-66
2022/04/11 02:39:10;;;;;;;4.47;2.83;;;;;;;;;;5021590;28;20194;-66
2022/04/11 02:41:35;;;;;;;5.43;2.43;;;;;;;;;;5014855;28;20210;-66
2022/04/11 02:44:00;;;;;;;4.27;2.60;;;;;;;;;;5025714;28;20190;-66
2022/04/11 02:46:26;;;;;;;7.70;2.60;;;;;;;;;;5015538;28;20552;-66
2022/04/11 02:48:51;;;;;;;4.33;2.63;;;;;;;;;;5027857;28;20586;-66
2022/04/11 02:51:16;;;;;;;7.53;2.63;;;;;;;;;;5023649;28;20257;-66
2022/04/11 02:53:42;;;;;;;6.10;2.70;;;;;;;;;;5021069;28;20182;-66
2022/04/11 02:56:07;;;;;;;7.60;2.63;;;;;;;;;;5021000;28;20693;-66
2022/04/11 02:58:32;;;;;;;5.20;2.80;;;;;;;;;;5029077;28;20190;-66
2022/04/11 03:00:58;;;;;;;5.63;2.70;;;;;;;;;;5025412;28;20193;-66
2022/04/11 03:03:23;;;;;;;3.70;2.43;;;;;;;;;;5024954;28;20532;-66
2022/04/11 03:05:48;;;;;;;8.47;2.97;;;;;;;;;;5024585;28;20591;-66
2022/04/11 03:08:13;;;;;;;5.67;2.37;;;;;;;;;;5017620;28;20216;-66
2022/04/11 03:10:39;;;;;;;4.73;2.80;;;;;;;;;;5015132;28;20238;-66
2022/04/11 03:13:04;;;;;;;4.73;2.50;;;;;;;;;;5026006;28;20190;-66
2022/04/11 03:15:29;;;;;;;6.17;2.40;;;;;;;;;;5019621;28;20669;-66
2022/04/11 03:17:55;;;;;;;5.60;2.80;;;;;;;;;;5016192;28;20213;-66
2022/04/11 03:20:20;;;;;;;4.17;2.37;;;;;;;;;;5022552;28;20194;-66
2022/04/11 03:22:45;;;;;;;7.20;3.20;;;;;;;;;;5023447;28;20189;-66
2022/04/11 03:25:11;;;;;;;5.67;2.83;;;;;;;;;;5025141;28;20218;-66
2022/04/11 03:27:36;;;;;;;6.50;2.63;;;;;;;;;;5012119;28;20353;-66
2022/04/11 03:30:01;;;;;;;8.10;2.60;;;;;;;;;;5016423;28;20186;-66
2022/04/11 03:32:27;;;;;;;7.53;3.50;;;;;;;;;;5020874;28;20758;-66
2022/04/11 03:34:52;;;;;;;5.27;3.03;;;;;;;;;;5022891;28;20912;-66
2022/04/11 03:37:18;;;;;;;6.50;2.97;;;;;;;;;;5016659;28;20186;-66
2022/04/11 03:39:43;;;;;;;6.17;3.60;;;;;;;;;;5016598;28;20197;-66
2022/04/11 03:42:09;;;;;;;6.20;3.03;;;;;;;;;;5024087;28;20264;-66
2022/04/11 03:44:35;;;;;;;6.47;2.70;;;;;;;;;;5020043;28;20189;-66
2022/04/11 03:47:01;;;;;;;5.80;3.10;;;;;;;;;;5026982;28;20649;-66
2022/04/11 03:49:26;;;;;;;9.50;3.10;;;;;;;;;;5024185;28;20289;-67
2022/04/11 03:51:51;;;;;;;7.87;3.00;;;;;;;;;;5021519;28;20190;-67
2022/04/11 03:54:17;;;;;;;7.03;3.30;;;;;;;;;;5017087;28;20198;-67
2022/04/11 03:56:42;;;;;;;6.20;3.40;;;;;;;;;;5017302;28;20335;-67
2022/04/11 03:59:07;;;;;;;9.27;3.93;;;;;;;;;;5023453;28;20243;-67
2022/04/11 04:01:33;;;;;;;10.70;3.83;;;;;;;;;;5015165;28;20240;-67
2022/04/11 04:03:58;;;;;;;3.90;2.90;;;;;;;;;;5026139;28;20189;-67
2022/04/11 04:06:23;;;;;;;8.17;3.20;;;;;;;;;;5025418;28;20235;-66
2022/04/11 04:08:49;;;;;;;7.73;2.87;;;;;;;;;;5023592;28;20214;-66
2022/04/11 04:11:14;;;;;;;6.03;3.20;;;;;;;;;;5018010;28;20669;-66
2022/04/11 04:13:39;;;;;;;8.27;3.33;;;;;;;;;;5018291;28;20183;-66
2022/04/11 04:16:05;;;;;;;8.57;3.13;;;;;;;;;;5020646;28;20321;-66
2022/04/11 04:18:30;;;;;;;4.97;3.37;;;;;;;;;;5023844;28;20546;-66
2022/04/11 04:20:56;;;;;;;4.83;3.20;;;;;;;;;;5012968;28;20904;-67
2022/04/11 04:23:21;;;;;;;6.80;3.47;;;;;;;;;;5016666;28;20541;-66
2022/04/11 04:25:46;;;;;;;7.53;3.83;;;;;;;;;;5026584;28;20194;-66
2022/04/11 04:28:14;;;;;;;4.80;3.40;;;;;;;;;;5015284;28;20212;-66
2022/04/11 04:30:40;;;;;;;4.97;3.33;;;;;;;;;;5027343;28;20544;-67
2022/04/11 04:33:05;;;;;;;7.63;3.37;;;;;;;;;;5010249;28;20183;-67
2022/04/11 04:35:30;;;;;;;4.07;3.17;;;;;;;;;;5026010;28;20197;-66
2022/04/11 04:37:56;;;;;;;7.53;3.03;;;;;;;;;;5023060;28;20183;-67
2022/04/11 04:40:21;;;;;;;5.53;3.10;;;;;;;;;;5024074;28;20399;-67
2022/04/11 04:42:47;;;;;;;7.37;3.80;;;;;;;;;;5025207;28;20688;-66
2022/04/11 04:45:12;;;;;;;6.20;3.33;;;;;;;;;;5012745;28;20179;-66
2022/04/11 04:47:38;;;;;;;6.73;3.60;;;;;;;;;;5016668;28;20293;-67
2022/04/11 04:50:04;;;;;;;7.87;3.50;;;;;;;;;;5022522;28;20681;-66
2022/04/11 04:52:29;;;;;;;7.67;3.20;;;;;;;;;;5024761;28;20193;-66
2022/04/11 04:54:54;;;;;;;9.10;3.63;;;;;;;;;;5028881;28;20218;-66
2022/04/11 04:57:20;;;;;;;8.73;3.43;;;;;;;;;;5029099;28;20180;-66
2022/04/11 04:59:45;;;;;;;6.67;3.60;;;;;;;;;;5030180;28;20224;-66
2022/04/11 05:02:11;;;;;;;10.93;3.93;;;;;;;;;;5024847;28;20197;-66
2022/04/11 05:04:36;;;;;;;6.60;3.63;;;;;;;;;;5025384;28;20332;-66
2022/04/11 05:07:02;;;;;;;7.07;4.17;;;;;;;;;;5024512;28;20240;-66
2022/04/11 05:09:27;;;;;;;7.13;4.07;;;;;;;;;;5026619;28;20580;-66
2022/04/11 05:11:52;;;;;;;6.57;3.93;;;;;;;;;;5029125;28;20225;-66
2022/04/11 05:14:18;;;;;;;5.07;3.40;;;;;;;;;;5029299;28;20713;-66
2022/04/11 05:16:43;;;;;;;7.63;3.80;;;;;;;;;;5024841;28;20710;-66
2022/04/11 05:19:09;;;;;;;10.40;4.77;;;;;;;;;;5023948;28;20206;-66
2022/04/11 05:21:34;;;;;;;7.47;3.70;;;;;;;;;;5021061;28;20191;-66
2022/04/11 05:24:00;;;;;;;5.57;3.47;;;;;;;;;;5025774;28;20178;-67
2022/04/11 05:26:25;;;;;;;7.63;3.87;;;;;;;;;;5025913;28;20609;-66
2022/04/11 05:28:50;;;;;;;5.97;3.30;;;;;;;;;;5025677;28;20276;-66
2022/04/11 05:31:17;;;;;;;6.70;3.40;;;;;;;;;;5024370;28;20233;-66
2022/04/11 05:33:42;;;;;;;6.93;3.60;;;;;;;;;;5020139;28;20206;-67
2022/04/11 05:36:07;;;;;;;6.17;3.23;;;;;;;;;;5020315;28;20282;-66
2022/04/11 05:38:33;;;;;;;6.10;3.60;;;;;;;;;;5024163;28;20261;-66
2022/04/11 05:40:58;;;;;;;8.30;3.40;;;;;;;;;;5027504;28;20247;-66
2022/04/11 05:43:23;;;;;;;5.47;2.93;;;;;;;;;;5023196;28;20179;-67
2022/04/11 05:45:49;;;;;;;5.40;3.40;;;;;;;;;;5022683;28;20174;-66
2022/04/11 05:48:14;;;;;;;6.40;3.23;;;;;;;;;;5020334;28;20209;-67
2022/04/11 05:50:40;;;;;;;7.70;3.77;;;;;;;;;;5028856;28;20174;-67
2022/04/11 05:53:05;;;;;;;5.67;3.57;;;;;;;;;;5026098;28;20543;-67
2022/04/11 05:55:31;;;;;;;6.50;3.77;;;;;;;;;;5028276;28;20209;-67
2022/04/11 05:57:56;;;;;;;6.73;3.73;;;;;;;;;;5029094;28;20197;-67
2022/04/11 06:00:22;;;;;;;5.27;3.63;;;;;;;;;;5025237;28;20190;-67
2022/04/11 06:02:48;;;;;;;6.70;4.10;;;;;;;;;;5023180;28;20182;-67
2022/04/11 06:05:14;;;;;;;7.83;4.37;;;;;;;;;;5028815;28;20213;-67
2022/04/11 06:07:40;;;;;;;7.40;3.83;;;;;;;;;;5025960;28;20238;-66
2022/04/11 06:10:07;;;;;;;9.03;4.13;;;;;;;;;;5025733;28;20590;-67
2022/04/11 06:12:33;;;;;;;7.37;4.30;;;;;;;;;;5024170;28;20178;-66
2022/04/11 06:15:00;;;;;;;9.20;4.20;;;;;;;;;;5022909;28;20202;-66
2022/04/11 06:17:25;;;;;;;10.33;4.40;;;;;;;;;;5026280;28;20189;-66
2022/04/11 06:19:55;;;;;;;7.63;4.47;;;;;;;;;;5028524;28;20220;-66
2022/04/11 06:22:21;;;;;;;7.47;4.17;;;;;;;;;;5025315;28;20216;-66
2022/04/11 06:24:47;;;;;;;10.23;5.07;;;;;;;;;;5027446;28;20186;-66
2022/04/11 06:27:13;;;;;;;7.80;4.73;;;;;;;;;;5023340;28;20214;-66
2022/04/11 06:29:38;;;;;;;10.77;5.17;;;;;;;;;;5023889;28;20218;-66
2022/04/11 06:32:05;;;;;;;8.90;4.70;;;;;;;;;;5024205;28;20219;-66
2022/04/11 06:34:31;;;;;;;8.43;5.40;;;;;;;;;;5020349;28;20693;-66
2022/04/11 06:36:57;;;;;;;8.57;5.10;;;;;;;;;;5022161;28;20217;-66
2022/04/11 06:39:22;;;;;;;9.73;5.47;;;;;;;;;;5027624;28;20544;-66
2022/04/11 06:41:48;;;;;;;10.13;5.37;;;;;;;;;;5024851;28;20189;-66
2022/04/11 06:44:13;;;;;;;11.10;5.57;;;;;;;;;;5024677;28;20178;-66
2022/04/11 06:46:38;;;;;;;8.93;5.50;;;;;;;;;;5024958;28;20193;-66
2022/04/11 06:49:04;;;;;;;8.67;5.57;;;;;;;;;;5024092;28;20217;-66
2022/04/11 06:51:29;;;;;;;8.17;5.53;;;;;;;;;;5022638;28;20197;-66
2022/04/11 06:53:54;;;;;;;9.80;4.80;;;;;;;;;;5022925;28;20193;-67
2022/04/11 06:56:20;;;;;;;7.87;5.47;;;;;;;;;;5026723;28;20206;-67
2022/04/11 06:58:45;;;;;;;8.17;5.50;;;;;;;;;;5026766;28;20236;-66
2022/04/11 07:01:10;;;;;;;7.63;5.10;;;;;;;;;;5022844;28;20213;-66
2022/04/11 07:03:36;;;;;;;6.97;4.50;;;;;;;;;;5026968;28;20179;-66
2022/04/11 07:06:01;;;;;;;9.48;5.15;;;;;;;;;;5026098;28;20240;-66
2022/04/11 07:08:26;;;;;;;7.67;4.37;;;;;;;;;;5025826;28;20677;-66
2022/04/11 07:10:52;;;;;;;7.97;4.57;;;;;;;;;;5027295;28;20218;-66
2022/04/11 07:13:17;;;;;;;7.40;4.47;;;;;;;;;;5025472;28;20194;-66
2022/04/11 07:15:42;;;;;;;7.95;4.72;;;;;;;;;;5025781;28;20208;-66
2022/04/11 07:18:08;;;;;;;8.70;4.72;;;;;;;;;;5023051;28;20186;-67
2022/04/11 07:20:33;;;;;;;8.75;4.95;;;;;;;;;;5026827;28;20609;-66
2022/04/11 07:22:58;;;;;;;10.52;4.95;;;;;;;;;;5025079;28;20666;-66
2022/04/11 07:25:24;;;;;;;12.98;4.57;;;;;;;;;;5026517;28;20216;-66
2022/04/11 07:27:50;;;;;;;7.88;3.80;;;;;;;;;;5020130;28;20199;-67
2022/04/11 07:30:15;;;;;;;8.50;4.65;;;;;;;;;;5017213;28;20185;-67
2022/04/11 07:32:41;;;;;;;9.82;4.50;;;;;;;;;;5027054;28;20232;-66
2022/04/11 07:35:06;;;;;;;7.57;4.03;;;;;;;;;;5025640;28;20190;-67
2022/04/11 07:37:33;;;;;;;6.93;4.63;;;;;;;;;;5026711;28;20178;-67
2022/04/11 07:40:03;;;;;;;9.97;4.60;;;;;;;;;;5027771;28;20178;-67
2022/04/11 07:42:28;;;;;;;7.87;4.00;;;;;;;;;;5025035;28;20187;-66
2022/04/11 07:44:53;;;;;;;11.27;4.07;;;;;;;;;;5025115;28;20216;-66
2022/04/11 07:47:19;;;;;;;9.27;3.87;;;;;;;;;;5017825;28;20174;-66
2022/04/11 07:49:44;;;;;;;10.30;4.40;;;;;;;;;;5028334;28;20538;-66
2022/04/11 07:52:10;;;;;;;10.03;4.27;;;;;;;;;;5027456;28;20332;-66
2022/04/11 07:54:35;;;;;;;9.00;4.60;;;;;;;;;;5025762;28;20177;-66
2022/04/11 07:57:01;;;;;;;10.63;4.40;;;;;;;;;;5028137;28;20170;-66
2022/04/11 07:59:26;;;;;;;5.80;3.87;;;;;;;;;;5022814;28;20655;-66
2022/04/11 08:01:52;;;;;;;7.47;4.22;;;;;;;;;;5021526;28;20210;-66
2022/04/11 08:04:18;;;;;;;6.93;3.97;;;;;;;;;;5022268;28;20689;-67
2022/04/11 08:06:43;;;;;;;9.10;3.65;;;;;;;;;;5027923;28;20178;-66
2022/04/11 08:09:09;;;;;;;7.28;4.15;;;;;;;;;;5026688;28;20206;-66
2022/04/11 08:11:34;;;;;;;9.35;4.50;;;;;;;;;;5026201;28;20222;-66
2022/04/11 08:14:00;;;;;;;7.65;4.47;;;;;;;;;;5025998;28;20269;-66
2022/04/11 08:16:25;;;;;;;7.07;4.13;;;;;;;;;;5027997;28;20204;-66
2022/04/11 08:18:50;;;;;;;13.02;4.13;;;;;;;;;;5025824;28;20177;-65
2022/04/11 08:21:16;;;;;;;10.32;4.70;;;;;;;;;;5026926;28;20213;-66
2022/04/11 08:23:41;;;;;;;8.98;4.28;;;;;;;;;;5024652;28;20266;-66
2022/04/11 08:26:06;;;;;;;7.15;3.95;;;;;;;;;;5021408;28;20244;-67
2022/04/11 08:28:32;;;;;;;7.45;3.78;;;;;;;;;;5025415;28;20190;-66
2022/04/11 08:30:57;;;;;;;8.30;3.80;;;;;;;;;;5027034;28;20213;-66
2022/04/11 08:33:23;;;;;;;10.70;4.47;;;;;;;;;;5027042;28;20322;-66
2022/04/11 08:35:48;;;;;;;7.22;4.82;;;;;;;;;;5027193;28;20197;-66
2022/04/11 08:38:13;;;;;;;8.07;4.43;;;;;;;;;;5024363;28;20178;-66
2022/04/11 08:40:39;;;;;;;10.68;4.10;;;;;;;;;;5026395;28;20188;-66
2022/04/11 08:43:04;;;;;;;10.07;4.53;;;;;;;;;;5025694;28;20181;-66
2022/04/11 08:45:30;;;;;;;10.00;4.55;;;;;;;;;;5019628;28;20193;-66
2022/04/11 08:47:58;;;;;;;8.15;4.25;;;;;;;;;;5022148;28;20206;-67
2022/04/11 08:50:25;;;;;;;9.98;4.65;;;;;;;;;;5028101;28;20182;-66
2022/04/11 08:52:51;;;;;;;8.10;4.43;;;;;;;;;;5026828;28;20170;-66
2022/04/11 08:55:17;;;;;;;6.45;4.40;;;;;;;;;;5019383;28;20186;-67
2022/04/11 08:57:43;;;;;;;9.48;4.90;;;;;;;;;;5016531;28;20864;-67
2022/04/11 09:00:14;;;;;;;9.10;4.60;;;;;;;;;;5016438;28;20780;-67
2022/04/11 09:02:41;;;;;;;8.25;4.28;;;;;;;;;;5026818;28;20182;-67
2022/04/11 09:05:07;;;;;;;11.27;4.70;;;;;;;;;;5027227;28;20402;-67
2022/04/11 09:07:56;;;;;;;8.15;4.80;;;;;;;;;;5027478;28;20209;-67
2022/04/11 09:10:32;;;;;;;8.80;4.32;;;;;;;;;;5026613;28;20675;-66
2022/04/11 09:13:05;;;;;;;7.53;4.40;;;;;;;;;;5023625;28;20205;-66
2022/04/11 09:15:40;;;;;;;9.60;4.93;;;;;;;;;;5023276;28;20542;-66
2022/04/11 09:18:06;;;;;;;8.68;5.28;;;;;;;;;;5026698;28;20261;-67
2022/04/11 09:20:31;;;;;;;8.07;4.22;;;;;;;;;;5021604;28;20710;-67
2022/04/11 09:22:58;;;;;;;9.63;4.30;;;;;;;;;;5025549;28;20197;-66
2022/04/11 09:25:28;;;;;;;9.02;4.65;;;;;;;;;;5026113;28;20554;-66
2022/04/11 09:28:08;;;;;;;9.43;4.78;;;;;;;;;;5024511;28;20701;-66
2022/04/11 09:30:35;;;;;;;10.38;5.00;;;;;;;;;;5021551;28;20204;-66
2022/04/11 09:33:05;;;;;;;8.38;4.30;;;;;;;;;;5025729;28;20178;-66
2022/04/11 09:35:37;;;;;;;6.63;4.57;;;;;;;;;;5026649;28;20186;-67
2022/04/11 09:38:10;;;;;;;9.55;4.38;;;;;;;;;;5027775;28;20176;-66
2022/04/11 09:40:49;;;;;;;9.60;4.47;;;;;;;;;;5031723;28;20192;-67
2022/04/11 09:43:16;;;;;;;8.82;4.57;;;;;;;;;;5023181;28;20646;-66
2022/04/11 09:45:46;;;;;;;9.93;5.05;;;;;;;;;;5030015;28;20178;-66
2022/04/11 09:48:18;;;;;;;9.95;5.40;;;;;;;;;;5027450;28;20202;-66
2022/04/11 09:50:43;;;;;;;7.63;4.68;;;;;;;;;;5029336;28;20188;-66
2022/04/11 09:53:16;;;;;;;9.63;4.85;;;;;;;;;;5025708;28;20620;-66
2022/04/11 09:55:44;;;;;;;9.13;4.60;;;;;;;;;;5028587;28;20665;-66
2022/04/11 09:58:10;;;;;;;9.65;5.03;;;;;;;;;;5029640;28;20224;-66
2022/04/11 10:00:39;;;;;;;5.70;4.22;;;;;;;;;;5026738;28;20553;-66
2022/04/11 10:03:05;;;;;;;10.88;4.90;;;;;;;;;;5029705;28;20622;-67
2022/04/11 10:05:35;;;;;;;8.88;4.63;;;;;;;;;;5029323;28;20252;-66
2022/04/11 10:08:03;;;;;;;7.68;4.38;;;;;;;;;;5027886;28;20217;-66
2022/04/11 10:10:29;;;;;;;7.88;4.28;;;;;;;;;;5027515;28;20518;-67
2022/04/11 10:12:57;;;;;;;8.13;4.60;;;;;;;;;;5029219;28;20493;-67
2022/04/11 10:15:23;;;;;;;7.75;4.80;;;;;;;;;;5017628;28;20186;-67
2022/04/11 10:17:50;;;;;;;6.00;4.05;;;;;;;;;;5029843;28;20233;-67
2022/04/11 10:20:35;;;;;;;9.80;5.55;;;;;;;;;;5026242;28;20182;-67
2022/04/11 10:23:11;;;;;;;8.02;5.45;;;;;;;;;;5028280;28;20178;-68
2022/04/11 10:25:43;;;;;;;8.18;5.30;;;;;;;;;;5024653;28;20636;-67
2022/04/11 10:28:25;;;;;;;10.02;6.70;;;;;;;;;;5028009;28;20221;-67
2022/04/11 10:31:10;;;;;;;13.30;6.07;;;;;;;;;;5016677;28;20217;-66
2022/04/11 10:33:43;;;;;;;8.57;6.03;;;;;;;;;;5014882;28;20265;-67
2022/04/11 10:36:34;;;;;;;7.10;5.28;;;;;;;;;;5027484;28;20193;-67
2022/04/11 10:39:14;;;;;;;12.90;5.80;;;;;;;;;;5014488;28;20285;-67
2022/04/11 10:41:55;;;;;;;10.68;5.75;;;;;;;;;;5026142;28;20832;-67
2022/04/11 10:44:42;;;;;;;9.38;6.88;;;;;;;;;;5026333;28;20182;-67
2022/04/11 10:47:10;;;;;;;11.70;7.40;;;;;;;;;;5018722;28;20239;-66
2022/04/11 10:49:44;;;;;;;9.25;6.70;;;;;;;;;;5028660;28;20233;-67
2022/04/11 10:52:36;;;;;;;9.90;6.82;;;;;;;;;;5027017;28;20240;-66
2022/04/11 10:55:19;;;;;;;9.18;7.10;;;;;;;;;;5026595;28;20269;-65
2022/04/11 10:57:55;;;;;;;8.30;6.82;;;;;;;;;;5028523;28;20228;-66
2022/04/11 11:00:26;;;;;;;12.85;6.65;;;;;;;;;;5024563;28;20641;-66
2022/04/11 11:02:52;;;;;;;9.38;5.88;;;;;;;;;;5028211;28;20257;-67
2022/04/11 11:05:24;;;;;;;9.68;6.07;;;;;;;;;;5021546;28;20289;-67
2022/04/11 11:08:09;;;;;;;9.35;5.63;;;;;;;;;;5027157;28;20301;-66
2022/04/11 11:10:38;;;;;;;6.55;5.60;;;;;;;;;;5027148;28;20240;-67
2022/04/11 11:13:41;;;;;;;9.35;6.65;;;;;;;;;;5017752;28;20182;-66
2022/04/11 11:16:07;;;;;;;8.70;6.15;;;;;;;;;;5029517;28;20277;-66
2022/04/11 11:18:51;;;;;;;9.63;6.45;;;;;;;;;;5027969;28;20626;-66
2022/04/11 11:21:19;;;;;;;8.70;5.63;;;;;;;;;;5023134;28;20190;-66
2022/04/11 11:24:12;;;;;;;8.07;5.20;;;;;;;;;;5010828;28;20231;-67
2022/04/11 11:26:45;;;;;;;6.20;4.53;;;;;;;;;;5023672;28;20324;-66
2022/04/11 11:29:19;;;;;;;8.15;5.00;;;;;;;;;;5020682;28;20241;-66
2022/04/11 11:31:46;;;;;;;5.90;4.70;;;;;;;;;;5013071;28;20239;-67
2022/04/11 11:34:14;;;;;;;7.35;4.80;;;;;;;;;;5024854;28;20196;-67
2022/04/11 11:36:40;;;;;;;5.93;4.72;;;;;;;;;;5027630;28;20194;-67
2022/04/11 11:39:16;;;;;;;9.85;5.13;;;;;;;;;;5024938;28;20277;-67
2022/04/11 11:41:45;;;;;;;6.82;4.80;;;;;;;;;;5023923;28;20186;-66
2022/04/11 11:44:11;;;;;;;6.78;5.03;;;;;;;;;;5023379;28;20213;-66
2022/04/11 11:47:00;;;;;;;10.35;4.63;;;;;;;;;;5025948;28;20269;-65
2022/04/11 11:49:28;;;;;;;7.63;5.05;;;;;;;;;;5026487;28;20205;-66
2022/04/11 11:51:54;;;;;;;6.78;4.97;;;;;;;;;;5027348;28;20240;-66
2022/04/11 11:54:40;;;;;;;10.95;5.47;;;;;;;;;;5026904;28;20186;-66
2022/04/11 11:57:32;;;;;;;7.10;5.45;;;;;;;;;;5024958;28;20552;-67
2022/04/11 12:00:01;;;;;;;10.13;5.88;;;;;;;;;;5023778;28;20255;-65
2022/04/11 12:05:18;;;;;;;8.25;4.78;;;;;;;;;;5023826;28;20223;-66
2022/04/11 12:07:44;;;;;;;9.82;4.57;;;;;;;;;;5026622;28;20213;-66
2022/04/11 12:10:12;;;;;;;5.88;4.65;;;;;;;;;;5019160;28;20314;-66
2022/04/11 12:12:37;;;;;;;11.15;5.05;;;;;;;;;;5027302;28;20513;-66
2022/04/11 12:15:06;;;;;;;7.85;4.43;;;;;;;;;;5022343;28;20597;-66
2022/04/11 12:17:33;;;;;;;7.78;4.68;;;;;;;;;;5027313;28;20182;-66
2022/04/11 12:20:30;;;;;;;7.72;4.93;;;;;;;;;;5022108;28;20231;-66
2022/04/11 12:23:12;;;;;;;6.22;4.93;;;;;;;;;;5021006;28;20190;-66
2022/04/11 12:25:56;;;;;;;6.43;4.78;;;;;;;;;;5016727;28;20190;-66
2022/04/11 12:28:26;;;;;;;7.65;4.40;;;;;;;;;;5027672;28;20217;-66
2022/04/11 12:31:05;;;;;;;8.82;4.75;;;;;;;;;;5016981;28;20393;-66
2022/04/11 12:33:34;;;;;;;8.45;5.53;;;;;;;;;;5025584;28;20182;-66
2022/04/11 12:36:17;;;;;;;8.07;4.70;;;;;;;;;;5026020;28;20185;-66
2022/04/11 12:38:47;;;;;;;6.22;4.45;;;;;;;;;;5026187;28;20220;-66
2022/04/11 12:41:30;;;;;;;6.90;5.15;;;;;;;;;;5023675;28;20269;-66
2022/04/11 12:44:18;;;;;;;9.13;4.75;;;;;;;;;;5024293;28;20197;-66
2022/04/11 12:46:46;;;;;;;6.30;4.28;;;;;;;;;;5024857;28;20174;-67
2022/04/11 12:49:15;;;;;;;4.82;4.30;;;;;;;;;;5023814;28;20213;-66
2022/04/11 12:51:41;;;;;;;6.63;4.82;;;;;;;;;;5024553;28;20206;-66
2022/04/11 12:54:16;;;;;;;5.75;4.50;;;;;;;;;;5023939;28;20217;-66
2022/04/11 12:56:47;;;;;;;11.45;4.72;;;;;;;;;;5025058;28;20212;-66
2022/04/11 12:59:27;;;;;;;6.97;5.00;;;;;;;;;;5024195;28;20186;-66
2022/04/11 13:01:57;;;;;;;8.15;4.07;;;;;;;;;;5023418;28;20185;-65
2022/04/11 13:04:23;;;;;;;6.55;4.97;;;;;;;;;;5021484;28;20185;-65
2022/04/11 13:06:49;;;;;;;9.70;4.82;;;;;;;;;;5023874;28;20201;-65
2022/04/11 13:09:16;;;;;;;5.90;4.20;;;;;;;;;;5025544;28;20268;-65
2022/04/11 13:11:45;;;;;;;6.40;4.25;;;;;;;;;;5026097;28;20222;-65
2022/04/11 13:14:10;;;;;;;5.57;4.00;;;;;;;;;;5029447;28;20186;-65
2022/04/11 13:19:20;;;;;;;5.80;3.95;;;;;;;;;;5026871;28;20719;-65
2022/04/11 13:21:47;;;;;;;7.38;3.92;;;;;;;;;;5029696;28;20186;-65
2022/04/11 13:24:12;;;;;;;6.60;3.97;;;;;;;;;;5026805;28;20669;-66
2022/04/11 13:26:38;;;;;;;7.40;4.30;;;;;;;;;;5028168;28;20190;-66
2022/04/11 13:29:03;;;;;;;5.07;4.20;;;;;;;;;;5028256;28;20244;-65
2022/04/11 13:31:28;;;;;;;5.95;4.47;;;;;;;;;;5026609;28;20233;-65
2022/04/11 13:33:54;;;;;;;6.70;5.00;;;;;;;;;;5030591;28;20652;-65
2022/04/11 13:36:19;;;;;;;7.15;4.93;;;;;;;;;;5027926;28;20197;-66
2022/04/11 13:38:44;;;;;;;8.40;4.80;;;;;;;;;;5029044;28;20178;-66
2022/04/11 13:41:10;;;;;;;8.60;4.60;;;;;;;;;;5028638;28;20557;-66
2022/04/11 13:43:36;;;;;;;9.85;5.60;;;;;;;;;;5031322;28;20186;-66
2022/04/11 13:46:01;;;;;;;9.10;4.90;;;;;;;;;;5030216;28;20186;-66
2022/04/11 13:48:26;;;;;;;8.70;4.95;;;;;;;;;;5027295;28;20209;-66
2022/04/11 13:50:52;;;;;;;10.63;4.63;;;;;;;;;;5030097;28;20182;-66
2022/04/11 13:53:17;;;;;;;6.70;4.70;;;;;;;;;;5029451;28;20189;-66
2022/04/11 13:55:42;;;;;;;6.82;4.60;;;;;;;;;;5028295;28;20524;-66
2022/04/11 13:58:08;;;;;;;6.20;4.45;;;;;;;;;;5029383;28;20178;-67
2022/04/11 14:00:33;;;;;;;7.97;4.82;;;;;;;;;;5027053;28;20178;-67
2022/04/11 14:03:00;;;;;;;6.07;4.22;;;;;;;;;;5026461;28;20488;-66
2022/04/11 14:05:25;;;;;;;8.88;4.93;;;;;;;;;;5027692;28;20684;-67
2022/04/11 14:07:50;;;;;;;8.45;4.53;;;;;;;;;;5030232;28;20206;-66
2022/04/11 14:10:16;;;;;;;6.00;4.30;;;;;;;;;;5023679;28;20234;-65
2022/04/11 14:12:42;;;;;;;7.22;4.88;;;;;;;;;;5024876;28;20532;-65
2022/04/11 14:15:08;;;;;;;7.13;4.75;;;;;;;;;;5026550;28;20202;-65
2022/04/11 14:17:34;;;;;;;5.55;4.20;;;;;;;;;;5030121;28;20261;-65
2022/04/11 14:19:59;;;;;;;6.78;4.05;;;;;;;;;;5025804;28;20277;-66
2022/04/11 14:22:24;;;;;;;7.40;4.05;;;;;;;;;;5024255;28;20192;-66
2022/04/11 14:24:50;;;;;;;4.57;4.10;;;;;;;;;;5025062;28;20583;-66
2022/04/11 14:27:15;;;;;;;8.35;5.00;;;;;;;;;;5027135;28;20265;-66
2022/04/11 14:29:43;;;;;;;6.88;4.28;;;;;;;;;;5026351;28;20564;-66
2022/04/11 14:32:09;;;;;;;8.18;4.10;;;;;;;;;;5023833;28;20209;-67
2022/04/11 14:34:34;;;;;;;7.28;4.43;;;;;;;;;;5027761;28;20232;-65
2022/04/11 14:36:59;;;;;;;10.38;4.38;;;;;;;;;;5026876;28;20856;-66
2022/04/11 14:39:26;;;;;;;7.82;4.90;;;;;;;;;;5028313;28;20179;-65
2022/04/11 14:41:52;;;;;;;5.32;4.80;;;;;;;;;;5027576;28;20183;-65
2022/04/11 14:44:17;;;;;;;6.43;4.85;;;;;;;;;;5028297;28;20186;-65
2022/04/11 14:46:42;;;;;;;6.13;4.50;;;;;;;;;;5026023;28;20256;-65
2022/04/11 14:49:08;;;;;;;8.73;5.15;;;;;;;;;;5027264;28;20202;-65